Time;durP1;ratioP1;P1;durP2;ratioP2;P2;SDS_P1;SDS_P2;PMS_P1;PMS_P2;Temp;Humidity;BMP_temperature;BMP_pressure;BME280_temperature;BME280_humidity;BME280_pressure;Samples;Min_cycle;Max_cycle;Signal;HPM_P1;HPM_P2
2022/01/17 00:00:05;;;;;;;;;;;;;;;;;;5046507;28;20029;-73
2022/01/17 00:02:32;;;;;;;;;;;;;;;;;;5049888;28;19925;-72
2022/01/17 00:04:59;;;;;;;;;;;;;;;;;;5042304;28;19933;-72
2022/01/17 00:07:29;;;;;;;;;;;;;;;;;;5047778;28;19925;-73
2022/01/17 00:09:56;;;;;;;;;;;;;;;;;;5044564;28;20362;-73
2022/01/17 00:12:23;;;;;;;;;;;;;;;;;;5048910;28;19932;-73
2022/01/17 00:14:50;;;;;;;;;;;;;;;;;;5042293;28;19931;-73
2022/01/17 00:17:30;;;;;;;;;;;;;;;;;;5050113;28;20390;-73
2022/01/17 00:20:07;;;;;;;;;;;;;;;;;;5047518;28;19925;-72
2022/01/17 00:22:34;;;;;;;;;;;;;;;;;;5050221;28;19928;-73
2022/01/17 00:25:00;;;;;;;;;;;;;;;;;;5047257;28;20398;-73
2022/01/17 00:27:27;;;;;;;;;;;;;;;;;;5044010;28;19928;-73
2022/01/17 00:29:54;;;;;;;;;;;;;;;;;;5044402;28;19929;-73
2022/01/17 00:32:21;;;;;;;;;;;;;;;;;;5049664;28;20293;-72
2022/01/17 00:34:48;;;;;;;;;;;;;;;;;;5048154;28;19948;-73
2022/01/17 00:37:15;;;;;;;;;;;;;;;;;;5047694;28;19931;-72
2022/01/17 00:39:42;;;;;;;;;;;;;;;;;;5046751;28;19932;-73
2022/01/17 00:42:09;;;;;;;;;;;;;;;;;;5045300;28;19931;-74
2022/01/17 00:44:36;;;;;;;;;;;;;;;;;;5048328;28;19931;-74
2022/01/17 00:47:03;;;;;;;;;;;;;;;;;;5047153;28;19925;-71
2022/01/17 00:49:30;;;;;;;;;;;;;;;;;;5047865;28;19929;-72
2022/01/17 00:51:57;;;;;;;;;;;;;;;;;;5047275;28;19952;-72
2022/01/17 00:54:24;;;;;;;;;;;;;;;;;;5046182;28;20434;-72
2022/01/17 00:56:51;;;;;;;;;;;;;;;;;;5036874;28;20303;-72
2022/01/17 00:59:18;;;;;;;;;;;;;;;;;;5048638;28;19931;-72
2022/01/17 01:01:45;;;;;;;;;;;;;;;;;;5046512;28;19925;-72
2022/01/17 01:04:12;;;;;;;;;;;;;;;;;;5045066;28;19932;-72
2022/01/17 01:06:39;;;;;;;;;;;;;;;;;;5042745;28;20244;-72
2022/01/17 01:09:06;;;;;;;;;;;;;;;;;;5047961;28;19928;-72
2022/01/17 01:11:33;;;;;;;;;;;;;;;;;;5043364;28;19925;-72
2022/01/17 01:14:00;;;;;;;;;;;;;;;;;;5039932;28;19933;-72
2022/01/17 01:16:35;;;;;;;;;;;;;;;;;;5048313;28;19925;-73
2022/01/17 01:27:54;;;;;;;;;;;;;;;;;;5048389;28;19923;-73
2022/01/17 01:30:23;;;;;;;;;;;;;;;;;;5044114;28;20393;-72
2022/01/17 01:32:53;;;;;;;;;;;;;;;;;;5040132;28;20461;-73
2022/01/17 01:35:23;;;;;;;;;;;;;;;;;;5045150;28;20385;-73
2022/01/17 01:37:50;;;;;;;;;;;;;;;;;;5050102;28;19925;-73
2022/01/17 01:40:17;;;;;;;;;;;;;;;;;;5045229;28;19925;-73
2022/01/17 01:42:44;;;;;;;;;;;;;;;;;;5051667;28;20019;-73
2022/01/17 01:45:12;;;;;;;;;;;;;;;;;;5048674;28;20016;-73
2022/01/17 01:47:39;;;;;;;;;;;;;;;;;;5049640;28;19956;-73
2022/01/17 01:50:06;;;;;;;;;;;;;;;;;;5051234;28;19932;-73
2022/01/17 01:52:33;;;;;;;;;;;;;;;;;;5051807;28;19931;-73
2022/01/17 01:55:00;;;;;;;;;;;;;;;;;;5048582;28;19951;-73
2022/01/17 01:57:27;;;;;;;;;;;;;;;;;;5051503;28;20310;-73
2022/01/17 01:59:54;;;;;;;;;;;;;;;;;;5050066;28;20274;-73
2022/01/17 02:02:21;;;;;;;;;;;;;;;;;;5050088;28;19929;-73
2022/01/17 02:04:48;;;;;;;;;;;;;;;;;;5044615;28;19932;-73
2022/01/17 02:07:15;;;;;;;;;;;;;;;;;;5050525;28;19925;-73
2022/01/17 02:09:43;;;;;;;;;;;;;;;;;;5044524;28;20314;-73
2022/01/17 02:12:10;;;;;;;;;;;;;;;;;;5042858;28;19976;-73
2022/01/17 02:14:37;;;;;;;;;;;;;;;;;;5048008;28;19925;-74
2022/01/17 02:17:04;;;;;;;;;;;;;;;;;;5046442;28;19948;-73
2022/01/17 02:19:31;;;;;;;;;;;;;;;;;;5046269;28;20325;-73
2022/01/17 02:21:58;;;;;;;;;;;;;;;;;;5048670;28;19952;-73
2022/01/17 02:24:25;;;;;;;;;;;;;;;;;;5047738;28;19929;-73
2022/01/17 02:26:52;;;;;;;;;;;;;;;;;;5043183;28;20359;-72
2022/01/17 02:29:19;;;;;;;;;;;;;;;;;;5049178;28;19925;-73
2022/01/17 02:31:46;;;;;;;;;;;;;;;;;;5050965;28;20621;-72
2022/01/17 02:34:13;;;;;;;;;;;;;;;;;;5046572;28;19925;-73
2022/01/17 02:36:40;;;;;;;;;;;;;;;;;;5046471;28;19932;-72
2022/01/17 02:39:07;;;;;;;;;;;;;;;;;;5047276;28;19932;-73
2022/01/17 02:41:34;;;;;;;;;;;;;;;;;;5048400;28;19932;-73
2022/01/17 02:44:02;;;;;;;;;;;;;;;;;;5051915;28;19925;-72
2022/01/17 02:46:29;;;;;;;;;;;;;;;;;;5047847;28;20019;-73
2022/01/17 02:48:56;;;;;;;;;;;;;;;;;;5049921;28;19928;-72
2022/01/17 02:51:23;;;;;;;;;;;;;;;;;;5043336;28;19925;-72
2022/01/17 02:53:50;;;;;;;;;;;;;;;;;;5049398;28;19970;-73
2022/01/17 02:56:17;;;;;;;;;;;;;;;;;;5047121;28;20340;-73
2022/01/17 02:58:44;;;;;;;;;;;;;;;;;;5049392;28;20294;-73
2022/01/17 03:01:11;;;;;;;;;;;;;;;;;;5050271;28;22051;-73
2022/01/17 03:03:37;;;;;;;;;;;;;;;;;;5049666;28;19999;-73
2022/01/17 03:06:04;;;;;;;;;;;;;;;;;;5048480;28;20382;-73
2022/01/17 03:08:31;;;;;;;;;;;;;;;;;;5050464;28;19933;-73
2022/01/17 03:10:58;;;;;;;;;;;;;;;;;;5048143;28;19925;-73
2022/01/17 03:13:26;;;;;;;;;;;;;;;;;;5047910;28;19925;-73
2022/01/17 03:15:56;;;;;;;;;;;;;;;;;;5045571;28;19931;-73
2022/01/17 03:18:23;;;;;;;;;;;;;;;;;;5043442;28;19935;-73
2022/01/17 03:20:50;;;;;;;;;;;;;;;;;;5042687;28;19925;-73
2022/01/17 03:23:17;;;;;;;;;;;;;;;;;;5049410;28;19925;-73
2022/01/17 03:25:44;;;;;;;;;;;;;;;;;;5041978;28;19925;-73
2022/01/17 03:28:11;;;;;;;;;;;;;;;;;;5044983;28;20276;-73
2022/01/17 03:30:38;;;;;;;;;;;;;;;;;;5041831;28;19925;-73
2022/01/17 03:33:04;;;;;;;;;;;;;;;;;;5049342;28;19948;-73
2022/01/17 03:35:31;;;;;;;;;;;;;;;;;;5042971;28;19924;-73
2022/01/17 03:37:58;;;;;;;;;;;;;;;;;;5043386;28;19925;-73
2022/01/17 03:40:25;;;;;;;;;;;;;;;;;;5046098;28;19925;-73
2022/01/17 03:42:52;;;;;;;;;;;;;;;;;;5048062;28;19938;-73
2022/01/17 03:45:19;;;;;;;;;;;;;;;;;;5047345;28;20310;-73
2022/01/17 03:47:47;;;;;;;;;;;;;;;;;;5046410;28;20334;-73
2022/01/17 03:50:14;;;;;;;;;;;;;;;;;;5047220;28;20031;-73
2022/01/17 03:52:43;;;;;;;;;;;;;;;;;;5048544;28;20120;-73
2022/01/17 03:55:10;;;;;;;;;;;;;;;;;;5049188;28;19925;-73
2022/01/17 03:57:37;;;;;;;;;;;;;;;;;;5046615;28;19933;-72
2022/01/17 04:00:04;;;;;;;;;;;;;;;;;;5049227;28;19932;-72
2022/01/17 04:02:31;;;;;;;;;;;;;;;;;;5049268;28;19925;-72
2022/01/17 04:04:58;;;;;;;;;;;;;;;;;;5048969;28;20413;-72
2022/01/17 04:07:25;;;;;;;;;;;;;;;;;;5045432;28;20382;-73
2022/01/17 04:09:52;;;;;;;;;;;;;;;;;;5044972;28;20294;-72
2022/01/17 04:12:19;;;;;;;;;;;;;;;;;;5043904;28;19952;-72
2022/01/17 04:14:46;;;;;;;;;;;;;;;;;;5049496;28;19936;-72
2022/01/17 04:17:13;;;;;;;;;;;;;;;;;;5046879;28;19964;-72
2022/01/17 04:19:41;;;;;;;;;;;;;;;;;;5050279;28;19924;-73
2022/01/17 04:22:10;;;;;;;;;;;;;;;;;;5049026;28;19994;-73
2022/01/17 04:24:37;;;;;;;;;;;;;;;;;;5045427;28;19982;-73
2022/01/17 04:27:04;;;;;;;;;;;;;;;;;;5041397;28;20401;-73
2022/01/17 04:29:31;;;;;;;;;;;;;;;;;;5046864;28;19947;-73
2022/01/17 04:31:58;;;;;;;;;;;;;;;;;;5048778;28;19925;-73
2022/01/17 04:34:25;;;;;;;;;;;;;;;;;;5048230;28;20401;-73
2022/01/17 04:36:52;;;;;;;;;;;;;;;;;;5048846;28;19925;-73
2022/01/17 04:39:18;;;;;;;;;;;;;;;;;;5049503;28;20279;-72
2022/01/17 04:41:45;;;;;;;;;;;;;;;;;;5043212;28;19925;-73
2022/01/17 04:46:57;;;;;;;;;;;;;;;;;;5041896;28;19927;-72
2022/01/17 04:49:24;;;;;;;;;;;;;;;;;;5043006;28;19925;-72
2022/01/17 04:51:54;;;;;;;;;;;;;;;;;;5044517;28;19925;-73
2022/01/17 04:54:39;;;;;;;;;;;;;;;;;;5047302;28;19926;-72
2022/01/17 04:57:06;;;;;;;;;;;;;;;;;;5046549;28;19931;-72
2022/01/17 04:59:33;;;;;;;;;;;;;;;;;;5045027;28;20291;-72
2022/01/17 05:02:00;;;;;;;;;;;;;;;;;;5045081;28;19932;-73
2022/01/17 05:04:27;;;;;;;;;;;;;;;;;;5048442;28;19932;-73
2022/01/17 05:06:53;;;;;;;;;;;;;;;;;;5050282;28;19925;-73
2022/01/17 05:09:20;;;;;;;;;;;;;;;;;;5046573;28;19924;-72
2022/01/17 05:11:47;;;;;;;;;;;;;;;;;;5046591;28;20413;-71
2022/01/17 05:14:14;;;;;;;;;;;;;;;;;;5040544;28;19940;-72
2022/01/17 05:16:46;;;;;;;;;;;;;;;;;;5041671;28;19931;-72
2022/01/17 05:21:58;;;;;;;;;;;;;;;;;;5046795;28;20033;-72
2022/01/17 05:24:24;;;;;;;;;;;;;;;;;;5050606;28;19925;-72
2022/01/17 05:26:51;;;;;;;;;;;;;;;;;;5050065;28;19947;-72
2022/01/17 05:29:19;;;;;;;;;;;;;;;;;;5051367;28;19928;-71
2022/01/17 05:31:46;;;;;;;;;;;;;;;;;;5049983;28;19925;-71
2022/01/17 05:34:13;;;;;;;;;;;;;;;;;;5047101;28;20365;-72
2022/01/17 05:36:40;;;;;;;;;;;;;;;;;;5043401;28;19925;-72
2022/01/17 05:39:07;;;;;;;;;;;;;;;;;;5047830;28;20391;-73
2022/01/17 05:41:33;;;;;;;;;;;;;;;;;;5052252;28;19935;-73
2022/01/17 05:44:00;;;;;;;;;;;;;;;;;;5052410;28;21808;-71
2022/01/17 05:46:27;;;;;;;;;;;;;;;;;;5051384;28;19925;-73
2022/01/17 05:48:54;;;;;;;;;;;;;;;;;;5050382;28;19926;-72
2022/01/17 05:51:21;;;;;;;;;;;;;;;;;;5051695;28;19925;-72
2022/01/17 05:53:48;;;;;;;;;;;;;;;;;;5048720;28;19925;-71
2022/01/17 05:56:15;;;;;;;;;;;;;;;;;;5049269;28;19939;-73
2022/01/17 05:58:42;;;;;;;;;;;;;;;;;;5052564;28;19924;-71
2022/01/17 06:01:09;;;;;;;;;;;;;;;;;;5048724;28;19924;-72
2022/01/17 06:03:36;;;;;;;;;;;;;;;;;;5047844;28;19983;-69
2022/01/17 06:06:05;;;;;;;;;;;;;;;;;;5046665;28;19924;-70
2022/01/17 06:08:32;;;;;;;;;;;;;;;;;;5046861;28;19929;-70
2022/01/17 06:10:59;;;;;;;;;;;;;;;;;;5043310;28;19932;-70
2022/01/17 06:13:26;;;;;;;;;;;;;;;;;;5051321;28;19948;-70
2022/01/17 06:15:52;;;;;;;;;;;;;;;;;;5044636;28;19932;-70
2022/01/17 06:18:19;;;;;;;;;;;;;;;;;;5049800;28;19944;-71
2022/01/17 06:20:46;;;;;;;;;;;;;;;;;;5048814;28;19940;-70
2022/01/17 06:23:13;;;;;;;;;;;;;;;;;;5043892;28;19940;-70
2022/01/17 06:25:40;;;;;;;;;;;;;;;;;;5046625;28;19932;-69
2022/01/17 06:28:07;;;;;;;;;;;;;;;;;;5050880;28;19928;-70
2022/01/17 06:30:34;;;;;;;;;;;;;;;;;;5047297;28;19925;-69
2022/01/17 06:33:02;;;;;;;;;;;;;;;;;;5050033;28;19940;-69
2022/01/17 06:35:29;;;;;;;;;;;;;;;;;;5052444;28;19925;-69
2022/01/17 06:37:56;;;;;;;;;;;;;;;;;;5049331;28;20007;-70
2022/01/17 06:40:23;;;;;;;;;;;;;;;;;;5050974;28;20390;-70
2022/01/17 06:42:51;;;;;;;;;;;;;;;;;;5047418;28;20330;-69
2022/01/17 06:45:18;;;;;;;;;;;;;;;;;;5051874;28;19971;-69
2022/01/17 06:47:45;;;;;;;;;;;;;;;;;;5051934;28;20056;-69
2022/01/17 06:50:12;;;;;;;;;;;;;;;;;;5051162;28;19932;-69
2022/01/17 06:52:39;;;;;;;;;;;;;;;;;;5051432;28;19925;-69
2022/01/17 06:55:06;;;;;;;;;;;;;;;;;;5048297;28;19939;-69
2022/01/17 06:57:33;;;;;;;;;;;;;;;;;;5050529;28;19935;-69
2022/01/17 07:00:00;;;;;;;;;;;;;;;;;;5047800;28;19925;-70
2022/01/17 07:02:27;;;;;;;;;;;;;;;;;;5051920;28;19929;-69
2022/01/17 07:04:54;;;;;;;;;;;;;;;;;;5052325;28;19925;-70
2022/01/17 07:07:21;;;;;;;;;;;;;;;;;;5052586;28;19925;-69
2022/01/17 07:09:48;;;;;;;;;;;;;;;;;;5049324;28;19925;-69
2022/01/17 07:12:15;;;;;;;;;;;;;;;;;;5063663;22;19932;-68
2022/01/17 07:14:42;;;;;;;;;;;;;;;;;;5051660;28;20400;-68
2022/01/17 07:17:09;;;;;;;;;;;;;;;;;;5046105;28;19932;-68
2022/01/17 07:19:36;;;;;;;;;;;;;;;;;;5048031;28;19924;-67
2022/01/17 07:22:03;;;;;;;;;;;;;;;;;;5055976;28;20012;-68
2022/01/17 07:24:30;;;;;;;;;;;;;;;;;;5055409;28;19925;-68
2022/01/17 07:26:57;;;;;;;;;;;;;;;;;;5051871;28;19924;-68
2022/01/17 07:29:24;;;;;;;;;;;;;;;;;;5055556;28;19924;-68
2022/01/17 07:31:51;;;;;;;;;;;;;;;;;;5051172;28;19925;-68
2022/01/17 07:34:18;;;;;;;;;;;;;;;;;;5055505;28;19925;-68
2022/01/17 07:36:45;;;;;;;;;;;;;;;;;;5054270;28;19924;-68
2022/01/17 07:39:12;;;;;;;;;;;;;;;;;;5041060;28;19933;-68
2022/01/17 07:41:39;;;;;;;;;;;;;;;;;;5036576;28;19933;-68
2022/01/17 07:44:08;;;;;;;;;;;;;;;;;;5048355;28;19933;-67
2022/01/17 07:46:37;;;;;;;;;;;;;;;;;;5041844;28;19944;-67
2022/01/17 07:49:10;;;;;;;;;;;;;;;;;;5048200;28;21306;-67
2022/01/17 07:51:37;;;;;;;;;;;;;;;;;;5040093;28;19932;-67
2022/01/17 07:54:04;;;;;;;;;;;;;;;;;;5046579;28;19928;-67
2022/01/17 07:56:32;;;;;;;;;;;;;;;;;;5040480;28;19941;-67
2022/01/17 07:58:59;;;;;;;;;;;;;;;;;;5043013;28;20322;-68
2022/01/17 08:01:26;;;;;;;;;;;;;;;;;;5045919;28;19955;-68
2022/01/17 08:03:53;;;;;;;;;;;;;;;;;;5048906;28;19925;-68
2022/01/17 08:06:20;;;;;;;;;;;;;;;;;;5045021;28;20016;-68
2022/01/17 08:08:47;;;;;;;;;;;;;;;;;;5043066;28;19924;-68
2022/01/17 08:11:14;;;;;;;;;;;;;;;;;;5048102;28;19924;-68
2022/01/17 08:13:41;;;;;;;;;;;;;;;;;;5049628;28;19924;-68
2022/01/17 08:16:08;;;;;;;;;;;;;;;;;;5045726;28;20035;-68
2022/01/17 08:18:35;;;;;;;;;;;;;;;;;;5047264;28;19932;-68
2022/01/17 08:21:03;;;;;;;;;;;;;;;;;;5048065;28;19925;-68
2022/01/17 08:23:30;;;;;;;;;;;;;;;;;;5045626;28;20343;-68
2022/01/17 08:25:57;;;;;;;;;;;;;;;;;;5051966;28;20294;-68
2022/01/17 08:28:24;;;;;;;;;;;;;;;;;;5030116;28;19948;-68
2022/01/17 08:30:51;;;;;;;;;;;;;;;;;;5050036;28;19924;-68
2022/01/17 08:33:18;;;;;;;;;;;;;;;;;;5046096;28;19935;-68
2022/01/17 08:35:45;;;;;;;;;;;;;;;;;;5046797;28;19936;-67
2022/01/17 08:38:12;;;;;;;;;;;;;;;;;;5047731;28;20465;-67
2022/01/17 08:40:39;;;;;;;;;;;;;;;;;;5051095;28;19925;-67
2022/01/17 08:43:07;;;;;;;;;;;;;;;;;;5049508;28;19929;-68
2022/01/17 08:45:34;;;;;;;;;;;;;;;;;;5041594;28;20012;-68
2022/01/17 08:48:01;;;;;;;;;;;;;;;;;;5042847;28;19935;-67
2022/01/17 08:50:29;;;;;;;;;;;;;;;;;;5041614;28;20039;-68
2022/01/17 08:52:56;;;;;;;;;;;;;;;;;;5041359;28;19975;-67
2022/01/17 08:55:25;;;;;;;;;;;;;;;;;;5055712;28;19925;-68
2022/01/17 08:57:52;;;;;;;;;;;;;;;;;;5051700;28;19928;-68
2022/01/17 09:00:19;;;;;;;;;;;;;;;;;;5053181;28;20390;-68
2022/01/17 09:02:46;;;;;;;;;;;;;;;;;;5049421;28;20016;-68
2022/01/17 09:05:13;;;;;;;;;;;;;;;;;;5048384;28;20383;-68
2022/01/17 09:07:40;;;;;;;;;;;;;;;;;;5057568;28;20237;-67
2022/01/17 09:10:07;;;;;;;;;;;;;;;;;;5054688;28;19932;-69
2022/01/17 09:12:34;;;;;;;;;;;;;;;;;;5054538;28;19925;-68
2022/01/17 09:15:01;;;;;;;;;;;;;;;;;;5056430;28;19925;-68
2022/01/17 09:17:28;;;;;;;;;;;;;;;;;;5055933;28;19928;-68
2022/01/17 09:19:55;;;;;;;;;;;;;;;;;;5052889;28;19960;-67
2022/01/17 09:22:22;;;;;;;;;;;;;;;;;;5051969;28;19933;-68
2022/01/17 09:24:50;;;;;;;;;;;;;;;;;;5057507;28;19931;-68
2022/01/17 09:27:17;;;;;;;;;;;;;;;;;;5054931;28;20043;-68
2022/01/17 09:29:44;;;;;;;;;;;;;;;;;;5054835;28;19929;-67
2022/01/17 09:32:11;;;;;;;;;;;;;;;;;;5055094;28;20213;-68
2022/01/17 09:34:38;;;;;;;;;;;;;;;;;;5054751;28;19925;-67
2022/01/17 09:37:05;;;;;;;;;;;;;;;;;;5051021;28;20522;-68
2022/01/17 09:39:32;;;;;;;;;;;;;;;;;;5056837;28;20386;-67
2022/01/17 09:41:59;;;;;;;;;;;;;;;;;;5051795;28;20297;-67
2022/01/17 09:44:26;;;;;;;;;;;;;;;;;;5058927;28;19929;-67
2022/01/17 09:46:55;;;;;;;;;;;;;;;;;;5055181;28;20360;-68
2022/01/17 09:49:25;;;;;;;;;;;;;;;;;;5057191;28;19929;-68
2022/01/17 09:52:05;;;;;;;;;;;;;;;;;;5035038;28;19925;-68
2022/01/17 09:54:32;;;;;;;;;;;;;;;;;;5051050;28;19929;-68
2022/01/17 09:56:59;;;;;;;;;;;;;;;;;;5055763;28;19936;-69
2022/01/17 09:59:26;;;;;;;;;;;;;;;;;;5057675;28;19929;-68
2022/01/17 10:01:53;;;;;;;;;;;;;;;;;;5054399;28;20345;-68
2022/01/17 10:04:20;;;;;;;;;;;;;;;;;;5049723;28;19925;-68
2022/01/17 10:06:48;;;;;;;;;;;;;;;;;;5047535;28;20023;-67
2022/01/17 10:09:17;;;;;;;;;;;;;;;;;;5051689;28;20374;-69
2022/01/17 10:11:44;;;;;;;;;;;;;;;;;;5048784;28;20019;-68
2022/01/17 10:14:11;;;;;;;;;;;;;;;;;;5051464;28;19947;-68
2022/01/17 10:16:39;;;;;;;;;;;;;;;;;;5050707;28;20019;-68
2022/01/17 10:19:06;;;;;;;;;;;;;;;;;;5051407;28;19935;-69
2022/01/17 10:21:36;;;;;;;;;;;;;;;;;;5046412;28;20012;-68
2022/01/17 10:27:05;;;;;;;;;;;;;;;;;;5044476;28;20019;-68
2022/01/17 10:35:00;;;;;;;;;;;;;;;;;;5047816;28;19920;-68
2022/01/17 10:37:27;;;;;;;;;;;;;;;;;;5050809;28;20006;-68
2022/01/17 10:39:54;;;;;;;;;;;;;;;;;;5053657;28;20306;-69
2022/01/17 10:42:21;;;;;;;;;;;;;;;;;;5051662;28;19933;-68
2022/01/17 10:44:48;;;;;;;;;;;;;;;;;;5050378;28;19925;-69
2022/01/17 10:47:15;;;;;;;;;;;;;;;;;;5051251;28;19924;-68
2022/01/17 10:49:42;;;;;;;;;;;;;;;;;;5053854;28;19924;-68
2022/01/17 10:52:09;;;;;;;;;;;;;;;;;;5051280;28;19925;-68
2022/01/17 10:54:36;;;;;;;;;;;;;;;;;;5040281;28;19928;-68
2022/01/17 10:57:05;;;;;;;;;;;;;;;;;;5050207;28;19929;-68
2022/01/17 10:59:34;;;;;;;;;;;;;;;;;;5050817;28;19925;-68
2022/01/17 11:02:01;;;;;;;;;;;;;;;;;;5049979;28;19925;-66
2022/01/17 11:04:28;;;;;;;;;;;;;;;;;;5051987;28;20405;-68
2022/01/17 11:06:57;;;;;;;;;;;;;;;;;;5047900;28;19940;-68
2022/01/17 11:09:24;;;;;;;;;;;;;;;;;;5056111;28;19931;-68
2022/01/17 11:11:51;;;;;;;;;;;;;;;;;;5051700;28;20081;-68
2022/01/17 11:14:18;;;;;;;;;;;;;;;;;;5055496;28;19948;-68
2022/01/17 11:16:45;;;;;;;;;;;;;;;;;;5049229;28;19932;-70
2022/01/17 11:20:04;;;;;;;;;;;;;;;;;;5048111;28;19924;-67
2022/01/17 11:22:09;;;;;;;;;;;;;;;;;;5050898;28;20382;-69
2022/01/17 11:24:36;;;;;;;;;;;;;;;;;;5053803;28;20107;-67
2022/01/17 11:27:03;;;;;;;;;;;;;;;;;;5051475;28;19925;-68
2022/01/17 11:29:30;;;;;;;;;;;;;;;;;;5050601;28;19924;-67
2022/01/17 11:31:57;;;;;;;;;;;;;;;;;;5053175;28;20293;-70
2022/01/17 11:34:24;;;;;;;;;;;;;;;;;;5054097;28;19925;-67
2022/01/17 11:36:51;;;;;;;;;;;;;;;;;;5054902;28;19925;-68
2022/01/17 11:39:18;;;;;;;;;;;;;;;;;;5049060;28;20403;-69
2022/01/17 11:41:45;;;;;;;;;;;;;;;;;;5047402;28;19929;-68
2022/01/17 11:44:12;;;;;;;;;;;;;;;;;;5048023;28;19925;-69
2022/01/17 11:46:39;;;;;;;;;;;;;;;;;;5049376;28;19925;-70
2022/01/17 11:49:06;;;;;;;;;;;;;;;;;;5048624;28;19931;-68
2022/01/17 11:51:33;;;;;;;;;;;;;;;;;;5051318;28;19933;-68
2022/01/17 11:54:00;;;;;;;;;;;;;;;;;;5044219;28;20280;-70
2022/01/17 11:56:27;;;;;;;;;;;;;;;;;;5046943;28;19933;-69
2022/01/17 11:58:54;;;;;;;;;;;;;;;;;;5050690;28;19925;-68
2022/01/17 12:01:21;;;;;;;;;;;;;;;;;;5046473;28;20438;-68
2022/01/17 12:03:48;;;;;;;;;;;;;;;;;;5049587;28;20016;-68
2022/01/17 12:06:15;;;;;;;;;;;;;;;;;;5047594;28;19924;-68
2022/01/17 12:08:42;;;;;;;;;;;;;;;;;;5058091;28;19943;-68
2022/01/17 12:11:09;;;;;;;;;;;;;;;;;;5052401;28;19925;-69
2022/01/17 12:13:37;;;;;;;;;;;;;;;;;;5046729;28;20378;-67
2022/01/17 12:16:07;;;;;;;;;;;;;;;;;;5049193;28;19925;-70
2022/01/17 12:18:34;;;;;;;;;;;;;;;;;;5044537;28;19925;-69
2022/01/17 12:21:01;;;;;;;;;;;;;;;;;;5049784;28;20313;-69
2022/01/17 12:23:28;;;;;;;;;;;;;;;;;;5048249;28;19925;-69
2022/01/17 12:25:55;;;;;;;;;;;;;;;;;;5045315;28;20287;-68
2022/01/17 12:28:22;;;;;;;;;;;;;;;;;;5046268;28;19937;-67
2022/01/17 12:30:50;;;;;;;;;;;;;;;;;;5045148;28;19935;-70
2022/01/17 12:33:17;;;;;;;;;;;;;;;;;;5055074;28;19929;-68
2022/01/17 12:35:46;;;;;;;;;;;;;;;;;;5053354;28;19924;-69
2022/01/17 12:38:15;;;;;;;;;;;;;;;;;;5048644;28;20327;-68
2022/01/17 12:40:42;;;;;;;;;;;;;;;;;;5052365;28;20403;-68
2022/01/17 12:43:09;;;;;;;;;;;;;;;;;;5058312;28;20015;-69
2022/01/17 12:45:36;;;;;;;;;;;;;;;;;;5043734;28;19933;-68
2022/01/17 12:48:03;;;;;;;;;;;;;;;;;;5047810;28;19928;-69
2022/01/17 12:50:32;;;;;;;;;;;;;;;;;;5043894;28;19925;-68
2022/01/17 12:52:59;;;;;;;;;;;;;;;;;;5053693;28;19929;-67
2022/01/17 12:55:26;;;;;;;;;;;;;;;;;;5042228;28;19925;-69
2022/01/17 12:57:53;;;;;;;;;;;;;;;;;;5044573;28;19929;-70
2022/01/17 13:00:20;;;;;;;;;;;;;;;;;;5048823;28;20370;-69
2022/01/17 13:02:47;;;;;;;;;;;;;;;;;;5043353;28;19932;-68
2022/01/17 13:05:14;;;;;;;;;;;;;;;;;;5048052;28;19924;-68
2022/01/17 13:07:41;;;;;;;;;;;;;;;;;;5051683;28;19925;-69
2022/01/17 13:10:08;;;;;;;;;;;;;;;;;;5046819;28;19987;-67
2022/01/17 13:12:35;;;;;;;;;;;;;;;;;;5049408;28;20290;-68
2022/01/17 13:15:02;;;;;;;;;;;;;;;;;;5047288;28;20326;-69
2022/01/17 13:17:29;;;;;;;;;;;;;;;;;;5046696;28;19925;-68
2022/01/17 13:19:56;;;;;;;;;;;;;;;;;;5053090;28;19929;-69
2022/01/17 13:22:24;;;;;;;;;;;;;;;;;;5051889;28;19925;-69
2022/01/17 13:25:02;;;;;;;;;;;;;;;;;;5048329;28;19954;-68
2022/01/17 13:27:31;;;;;;;;;;;;;;;;;;5046460;28;19925;-70
2022/01/17 13:29:58;;;;;;;;;;;;;;;;;;5048780;28;20010;-70
2022/01/17 13:32:25;;;;;;;;;;;;;;;;;;5050768;28;20406;-70
2022/01/17 13:34:53;;;;;;;;;;;;;;;;;;5044422;28;19956;-68
2022/01/17 13:37:20;;;;;;;;;;;;;;;;;;5046447;28;20675;-69
2022/01/17 13:39:47;;;;;;;;;;;;;;;;;;5064008;28;19952;-68
2022/01/17 13:42:14;;;;;;;;;;;;;;;;;;5054589;28;19925;-69
2022/01/17 13:44:41;;;;;;;;;;;;;;;;;;5052051;28;19924;-69
2022/01/17 13:47:08;;;;;;;;;;;;;;;;;;5050450;28;19962;-68
2022/01/17 13:49:35;;;;;;;;;;;;;;;;;;5052838;28;19924;-69
2022/01/17 13:52:02;;;;;;;;;;;;;;;;;;5052730;28;20314;-69
2022/01/17 13:54:29;;;;;;;;;;;;;;;;;;5050014;28;20404;-72
2022/01/17 13:56:56;;;;;;;;;;;;;;;;;;5038774;28;19929;-68
2022/01/17 13:59:23;;;;;;;;;;;;;;;;;;5055072;28;19930;-69
2022/01/17 14:01:50;;;;;;;;;;;;;;;;;;5051648;28;20307;-68
2022/01/17 14:04:17;;;;;;;;;;;;;;;;;;5048745;28;19968;-68
2022/01/17 14:06:44;;;;;;;;;;;;;;;;;;5058772;28;20283;-70
2022/01/17 14:09:11;;;;;;;;;;;;;;;;;;5050859;28;19932;-69
2022/01/17 14:11:41;;;;;;;;;;;;;;;;;;5052081;28;19925;-69
2022/01/17 14:14:07;;;;;;;;;;;;;;;;;;5058357;28;19928;-68
2022/01/17 14:16:34;;;;;;;;;;;;;;;;;;5053273;28;19925;-68
2022/01/17 14:19:01;;;;;;;;;;;;;;;;;;5048308;28;20390;-68
2022/01/17 14:21:28;;;;;;;;;;;;;;;;;;5044445;28;19933;-70
2022/01/17 14:23:55;;;;;;;;;;;;;;;;;;5049158;28;19925;-69
2022/01/17 14:26:22;;;;;;;;;;;;;;;;;;5048529;28;19925;-69
2022/01/17 14:28:49;;;;;;;;;;;;;;;;;;5051156;28;19924;-69
2022/01/17 14:31:16;;;;;;;;;;;;;;;;;;5049836;28;19933;-69
2022/01/17 14:33:48;;;;;;;;;;;;;;;;;;5050398;28;20397;-69
2022/01/17 14:36:16;;;;;;;;;;;;;;;;;;5056865;28;19931;-69
2022/01/17 14:38:43;;;;;;;;;;;;;;;;;;5056735;28;19930;-69
2022/01/17 14:41:10;;;;;;;;;;;;;;;;;;5051899;28;20413;-70
2022/01/17 14:43:37;;;;;;;;;;;;;;;;;;5049673;28;20450;-68
2022/01/17 14:46:03;;;;;;;;;;;;;;;;;;5049554;28;19931;-70
2022/01/17 14:48:30;;;;;;;;;;;;;;;;;;5050803;28;19925;-68
2022/01/17 14:50:57;;;;;;;;;;;;;;;;;;5047636;28;20397;-69
2022/01/17 14:53:24;;;;;;;;;;;;;;;;;;5052750;28;19925;-69
2022/01/17 15:01:27;;;;;;;;;;;;;;;;;;5049115;28;19927;-69
2022/01/17 15:03:55;;;;;;;;;;;;;;;;;;5052571;28;19956;-68
2022/01/17 15:06:22;;;;;;;;;;;;;;;;;;5049157;28;19979;-69
2022/01/17 15:08:50;;;;;;;;;;;;;;;;;;5047683;28;19925;-68
2022/01/17 15:11:17;;;;;;;;;;;;;;;;;;5050555;28;19978;-68
2022/01/17 15:13:44;;;;;;;;;;;;;;;;;;5056612;28;19925;-68
2022/01/17 15:16:11;;;;;;;;;;;;;;;;;;5048063;28;19925;-68
2022/01/17 15:18:38;;;;;;;;;;;;;;;;;;5049821;28;19929;-69
2022/01/17 15:21:05;;;;;;;;;;;;;;;;;;5047954;28;19932;-69
2022/01/17 15:23:32;;;;;;;;;;;;;;;;;;5049035;28;20599;-69
2022/01/17 15:26:00;;;;;;;;;;;;;;;;;;5048243;28;19939;-69
2022/01/17 15:28:27;;;;;;;;;;;;;;;;;;5051413;28;19931;-68
2022/01/17 15:30:55;;;;;;;;;;;;;;;;;;5049623;28;19965;-69
2022/01/17 15:33:22;;;;;;;;;;;;;;;;;;5048826;28;19925;-69
2022/01/17 15:35:49;;;;;;;;;;;;;;;;;;5051339;28;19925;-69
2022/01/17 15:38:16;;;;;;;;;;;;;;;;;;5053922;28;19931;-69
2022/01/17 15:40:44;;;;;;;;;;;;;;;;;;5049870;28;19931;-69
2022/01/17 15:43:11;;;;;;;;;;;;;;;;;;5045870;28;19970;-69
2022/01/17 15:45:38;;;;;;;;;;;;;;;;;;5047732;28;19925;-70
2022/01/17 15:48:05;;;;;;;;;;;;;;;;;;5045682;28;20345;-69
2022/01/17 15:50:32;;;;;;;;;;;;;;;;;;5047132;28;19925;-68
2022/01/17 15:52:59;;;;;;;;;;;;;;;;;;5030742;28;19925;-69
2022/01/17 15:55:26;;;;;;;;;;;;;;;;;;5045715;28;19933;-68
2022/01/17 15:57:53;;;;;;;;;;;;;;;;;;5042280;28;19932;-68
2022/01/17 16:00:20;;;;;;;;;;;;;;;;;;5046365;28;19925;-69
2022/01/17 16:02:47;;;;;;;;;;;;;;;;;;5047055;28;19931;-69
2022/01/17 16:05:14;;;;;;;;;;;;;;;;;;5038425;28;20076;-69
2022/01/17 16:07:41;;;;;;;;;;;;;;;;;;5037156;28;19932;-68
2022/01/17 16:10:08;;;;;;;;;;;;;;;;;;5045209;28;20409;-69
2022/01/17 16:12:37;;;;;;;;;;;;;;;;;;5047715;28;20008;-67
2022/01/17 16:15:04;;;;;;;;;;;;;;;;;;5045284;28;19935;-69
2022/01/17 16:17:31;;;;;;;;;;;;;;;;;;5049239;28;19931;-69
2022/01/17 16:19:58;;;;;;;;;;;;;;;;;;5045678;28;20354;-69
2022/01/17 16:22:25;;;;;;;;;;;;;;;;;;5047237;28;19979;-69
2022/01/17 16:24:52;;;;;;;;;;;;;;;;;;5047878;28;19925;-68
2022/01/17 16:27:19;;;;;;;;;;;;;;;;;;5045262;28;19931;-68
2022/01/17 16:29:46;;;;;;;;;;;;;;;;;;5049317;28;19925;-68
2022/01/17 16:32:14;;;;;;;;;;;;;;;;;;5046238;28;19939;-68
2022/01/17 16:34:41;;;;;;;;;;;;;;;;;;5044587;28;19925;-67
2022/01/17 16:37:08;;;;;;;;;;;;;;;;;;5044864;28;19958;-68
2022/01/17 16:39:36;;;;;;;;;;;;;;;;;;5039339;28;19935;-67
2022/01/17 16:42:03;;;;;;;;;;;;;;;;;;5037966;28;19925;-67
2022/01/17 16:44:30;;;;;;;;;;;;;;;;;;5040233;28;19928;-68
2022/01/17 16:46:57;;;;;;;;;;;;;;;;;;5044301;28;19933;-67
2022/01/17 16:49:24;;;;;;;;;;;;;;;;;;5045718;28;19956;-70
2022/01/17 16:51:51;;;;;;;;;;;;;;;;;;5042986;28;20083;-68
2022/01/17 16:54:18;;;;;;;;;;;;;;;;;;5039520;28;20404;-67
2022/01/17 16:56:45;;;;;;;;;;;;;;;;;;5042648;28;20007;-67
2022/01/17 16:59:12;;;;;;;;;;;;;;;;;;5045773;28;19931;-67
2022/01/17 17:01:39;;;;;;;;;;;;;;;;;;5048764;28;20011;-68
2022/01/17 17:04:06;;;;;;;;;;;;;;;;;;5045829;28;19938;-68
2022/01/17 17:06:33;;;;;;;;;;;;;;;;;;5044885;28;19925;-67
2022/01/17 17:09:00;;;;;;;;;;;;;;;;;;5045956;28;20017;-67
2022/01/17 17:11:27;;;;;;;;;;;;;;;;;;5045689;28;19932;-67
2022/01/17 17:13:54;;;;;;;;;;;;;;;;;;5051172;28;19931;-67